Hood River, Oregon
Current Conditions -  °F | °C
As of 10:39 AM on Saturday 25 Oct 2014 (Local Time) from K4S2 Reporting Station
Overcast Overcast  
Wind Chill: 54°   Ceiling: 1300
Heat Index: 54°   Visibility: 10mi
Dew Point: 48°   Wind: 0mph
Humidity: 82%   Direction: NA
Pressure: 29.6"   Gusts: NA
Location:  45.71°N, 121.52°W
Report Text: K4S2 251739Z AUTO 00000KT 10SM OVC013 12/09 A2960 RMK AO2 SLP039 T01200090
Loading
Personal Weather Stations






























Interactive Weather Map
Tropical Storm Tracking
New forecast layout! Learn more

10-Day Weather Forecast

Advertisements
Track Severe Weather on mobile